sensor_id;sensor_type;location;lat;lon;timestamp;temperature;humidity
51029;DHT22;37054;52.054;8.600;2023-02-01T00:00:21;9.20;61.70
51029;DHT22;37054;52.054;8.600;2023-02-01T00:02:47;9.20;61.60
51029;DHT22;37054;52.054;8.600;2023-02-01T00:05:12;9.20;61.80
51029;DHT22;37054;52.054;8.600;2023-02-01T00:07:41;9.30;61.90
51029;DHT22;37054;52.054;8.600;2023-02-01T00:10:17;9.30;62.20
51029;DHT22;37054;52.054;8.600;2023-02-01T00:12:45;9.40;62.30
51029;DHT22;37054;52.054;8.600;2023-02-01T00:15:11;9.40;62.50
51029;DHT22;37054;52.054;8.600;2023-02-01T00:17:42;9.50;62.40
51029;DHT22;37054;52.054;8.600;2023-02-01T00:20:08;9.50;62.50
51029;DHT22;37054;52.054;8.600;2023-02-01T00:22:36;9.60;62.40
51029;DHT22;37054;52.054;8.600;2023-02-01T00:25:02;9.60;62.30
51029;DHT22;37054;52.054;8.600;2023-02-01T00:27:28;9.70;62.50
51029;DHT22;37054;52.054;8.600;2023-02-01T00:29:55;9.70;62.40
51029;DHT22;37054;52.054;8.600;2023-02-01T00:32:22;9.80;62.20
51029;DHT22;37054;52.054;8.600;2023-02-01T00:34:50;9.80;62.30
51029;DHT22;37054;52.054;8.600;2023-02-01T00:37:16;9.80;62.40
51029;DHT22;37054;52.054;8.600;2023-02-01T00:39:41;9.80;62.30
51029;DHT22;37054;52.054;8.600;2023-02-01T00:42:07;9.90;62.30
51029;DHT22;37054;52.054;8.600;2023-02-01T00:44:33;9.90;62.20
51029;DHT22;37054;52.054;8.600;2023-02-01T00:47:00;9.90;61.90
51029;DHT22;37054;52.054;8.600;2023-02-01T00:49:29;9.90;61.70
51029;DHT22;37054;52.054;8.600;2023-02-01T00:51:54;9.90;61.70
51029;DHT22;37054;52.054;8.600;2023-02-01T00:54:25;9.80;61.60
51029;DHT22;37054;52.054;8.600;2023-02-01T00:56:51;9.80;61.40
51029;DHT22;37054;52.054;8.600;2023-02-01T00:59:17;9.80;61.40
51029;DHT22;37054;52.054;8.600;2023-02-01T01:01:42;9.80;61.50
51029;DHT22;37054;52.054;8.600;2023-02-01T01:04:08;9.80;61.70
51029;DHT22;37054;52.054;8.600;2023-02-01T01:06:35;9.80;61.80
51029;DHT22;37054;52.054;8.600;2023-02-01T01:09:02;9.80;62.10
51029;DHT22;37054;52.054;8.600;2023-02-01T01:11:29;9.80;62.10
51029;DHT22;37054;52.054;8.600;2023-02-01T01:13:55;9.80;62.10
51029;DHT22;37054;52.054;8.600;2023-02-01T01:16:24;9.90;62.20
51029;DHT22;37054;52.054;8.600;2023-02-01T01:18:54;9.90;62.10
51029;DHT22;37054;52.054;8.600;2023-02-01T01:21:20;10.00;62.20
51029;DHT22;37054;52.054;8.600;2023-02-01T01:23:46;10.00;62.10
51029;DHT22;37054;52.054;8.600;2023-02-01T01:26:21;10.00;62.00
51029;DHT22;37054;52.054;8.600;2023-02-01T01:28:47;10.00;62.20
51029;DHT22;37054;52.054;8.600;2023-02-01T01:31:14;10.10;62.30
51029;DHT22;37054;52.054;8.600;2023-02-01T01:33:39;10.10;62.30
51029;DHT22;37054;52.054;8.600;2023-02-01T01:36:08;10.10;62.30
51029;DHT22;37054;52.054;8.600;2023-02-01T01:38:37;10.10;62.30
51029;DHT22;37054;52.054;8.600;2023-02-01T01:41:16;10.10;62.30
51029;DHT22;37054;52.054;8.600;2023-02-01T01:46:21;10.20;62.30
51029;DHT22;37054;52.054;8.600;2023-02-01T01:48:48;10.20;62.20
51029;DHT22;37054;52.054;8.600;2023-02-01T01:51:18;10.20;62.20
51029;DHT22;37054;52.054;8.600;2023-02-01T01:53:45;10.20;62.10
51029;DHT22;37054;52.054;8.600;2023-02-01T01:56:12;10.20;61.90
51029;DHT22;37054;52.054;8.600;2023-02-01T01:58:38;10.10;62.00
51029;DHT22;37054;52.054;8.600;2023-02-01T02:01:04;10.10;62.20
51029;DHT22;37054;52.054;8.600;2023-02-01T02:05:56;10.20;62.20
51029;DHT22;37054;52.054;8.600;2023-02-01T02:08:23;10.20;62.40
51029;DHT22;37054;52.054;8.600;2023-02-01T02:10:52;10.30;62.50
51029;DHT22;37054;52.054;8.600;2023-02-01T02:16:17;10.30;62.50
51029;DHT22;37054;52.054;8.600;2023-02-01T02:18:55;10.30;62.50
51029;DHT22;37054;52.054;8.600;2023-02-01T02:21:31;10.30;62.70
51029;DHT22;37054;52.054;8.600;2023-02-01T02:24:14;10.30;62.70
51029;DHT22;37054;52.054;8.600;2023-02-01T02:35:45;10.50;62.50
51029;DHT22;37054;52.054;8.600;2023-02-01T02:38:29;10.50;62.50
51029;DHT22;37054;52.054;8.600;2023-02-01T02:43:35;10.60;62.80
51029;DHT22;37054;52.054;8.600;2023-02-01T02:46:23;10.60;62.80
51029;DHT22;37054;52.054;8.600;2023-02-01T02:54:26;10.70;62.70
51029;DHT22;37054;52.054;8.600;2023-02-01T03:00:22;10.80;62.70
51029;DHT22;37054;52.054;8.600;2023-02-01T03:03:08;10.80;62.90
51029;DHT22;37054;52.054;8.600;2023-02-01T03:05:59;10.90;63.00
51029;DHT22;37054;52.054;8.600;2023-02-01T03:08:31;11.00;62.90
51029;DHT22;37054;52.054;8.600;2023-02-01T03:11:19;11.00;62.80
51029;DHT22;37054;52.054;8.600;2023-02-01T03:13:54;11.10;62.80
51029;DHT22;37054;52.054;8.600;2023-02-01T03:16:40;11.10;62.80
51029;DHT22;37054;52.054;8.600;2023-02-01T03:21:43;11.20;62.60
51029;DHT22;37054;52.054;8.600;2023-02-01T03:27:13;11.20;62.50
51029;DHT22;37054;52.054;8.600;2023-02-01T03:32:16;11.20;62.50
51029;DHT22;37054;52.054;8.600;2023-02-01T03:35:10;11.30;62.60
51029;DHT22;37054;52.054;8.600;2023-02-01T03:37:41;11.30;62.50
51029;DHT22;37054;52.054;8.600;2023-02-01T03:40:12;11.30;62.30
51029;DHT22;37054;52.054;8.600;2023-02-01T03:45:37;11.30;62.40
51029;DHT22;37054;52.054;8.600;2023-02-01T03:48:07;11.30;62.30
51029;DHT22;37054;52.054;8.600;2023-02-01T03:50:44;11.30;62.00
51029;DHT22;37054;52.054;8.600;2023-02-01T03:53:17;11.30;62.20
51029;DHT22;37054;52.054;8.600;2023-02-01T03:58:50;11.30;62.10
51029;DHT22;37054;52.054;8.600;2023-02-01T04:04:23;11.30;62.20
51029;DHT22;37054;52.054;8.600;2023-02-01T04:07:12;11.30;62.20
51029;DHT22;37054;52.054;8.600;2023-02-01T04:09:40;11.40;62.30
51029;DHT22;37054;52.054;8.600;2023-02-01T04:12:33;11.40;62.30
51029;DHT22;37054;52.054;8.600;2023-02-01T04:15:08;11.40;62.20
51029;DHT22;37054;52.054;8.600;2023-02-01T04:17:33;11.40;62.20
51029;DHT22;37054;52.054;8.600;2023-02-01T04:20:17;11.50;62.10
51029;DHT22;37054;52.054;8.600;2023-02-01T04:22:58;11.50;62.10
51029;DHT22;37054;52.054;8.600;2023-02-01T04:25:51;11.50;62.10
51029;DHT22;37054;52.054;8.600;2023-02-01T04:31:15;11.40;62.10
51029;DHT22;37054;52.054;8.600;2023-02-01T04:33:59;11.30;62.10
51029;DHT22;37054;52.054;8.600;2023-02-01T04:36:27;11.20;62.10
51029;DHT22;37054;52.054;8.600;2023-02-01T04:39:03;11.10;62.20
51029;DHT22;37054;52.054;8.600;2023-02-01T04:41:40;11.10;62.30
51029;DHT22;37054;52.054;8.600;2023-02-01T04:44:08;11.10;62.30
51029;DHT22;37054;52.054;8.600;2023-02-01T04:46:41;11.10;62.30
51029;DHT22;37054;52.054;8.600;2023-02-01T04:49:08;11.00;62.60
51029;DHT22;37054;52.054;8.600;2023-02-01T04:51:36;11.00;62.60
51029;DHT22;37054;52.054;8.600;2023-02-01T04:54:02;11.00;62.70
51029;DHT22;37054;52.054;8.600;2023-02-01T04:56:31;10.90;62.70
51029;DHT22;37054;52.054;8.600;2023-02-01T05:02:26;10.90;62.70
51029;DHT22;37054;52.054;8.600;2023-02-01T05:05:03;10.80;62.60
51029;DHT22;37054;52.054;8.600;2023-02-01T05:07:32;10.80;62.80
51029;DHT22;37054;52.054;8.600;2023-02-01T05:10:00;10.80;63.10
51029;DHT22;37054;52.054;8.600;2023-02-01T05:12:25;10.80;63.20
51029;DHT22;37054;52.054;8.600;2023-02-01T05:15:12;10.70;63.20
51029;DHT22;37054;52.054;8.600;2023-02-01T05:17:38;10.70;63.40
51029;DHT22;37054;52.054;8.600;2023-02-01T05:20:08;10.70;63.40
51029;DHT22;37054;52.054;8.600;2023-02-01T05:22:34;10.70;63.50
51029;DHT22;37054;52.054;8.600;2023-02-01T05:25:00;10.70;63.60
51029;DHT22;37054;52.054;8.600;2023-02-01T05:27:27;10.70;63.60
51029;DHT22;37054;52.054;8.600;2023-02-01T05:29:53;10.70;63.60
51029;DHT22;37054;52.054;8.600;2023-02-01T05:32:19;10.70;63.70
51029;DHT22;37054;52.054;8.600;2023-02-01T05:34:45;10.70;63.60
51029;DHT22;37054;52.054;8.600;2023-02-01T05:37:18;10.70;63.50
51029;DHT22;37054;52.054;8.600;2023-02-01T05:39:44;10.70;63.70
51029;DHT22;37054;52.054;8.600;2023-02-01T05:42:12;10.60;63.80
51029;DHT22;37054;52.054;8.600;2023-02-01T05:44:38;10.60;63.90
51029;DHT22;37054;52.054;8.600;2023-02-01T05:47:03;10.70;63.90
51029;DHT22;37054;52.054;8.600;2023-02-01T05:49:31;10.70;63.90
51029;DHT22;37054;52.054;8.600;2023-02-01T05:51:57;10.70;63.90
51029;DHT22;37054;52.054;8.600;2023-02-01T05:54:30;10.70;63.70
51029;DHT22;37054;52.054;8.600;2023-02-01T05:57:03;10.70;63.70
51029;DHT22;37054;52.054;8.600;2023-02-01T05:59:28;10.70;63.70
51029;DHT22;37054;52.054;8.600;2023-02-01T06:01:55;10.80;63.70
51029;DHT22;37054;52.054;8.600;2023-02-01T06:04:20;10.80;63.60
51029;DHT22;37054;52.054;8.600;2023-02-01T06:06:48;10.80;63.50
51029;DHT22;37054;52.054;8.600;2023-02-01T06:09:15;10.80;63.50
51029;DHT22;37054;52.054;8.600;2023-02-01T06:11:51;10.80;63.40
51029;DHT22;37054;52.054;8.600;2023-02-01T06:14:16;10.90;63.60
51029;DHT22;37054;52.054;8.600;2023-02-01T06:16:52;11.00;63.60
51029;DHT22;37054;52.054;8.600;2023-02-01T06:19:20;11.00;63.70
51029;DHT22;37054;52.054;8.600;2023-02-01T06:21:46;11.00;63.60
51029;DHT22;37054;52.054;8.600;2023-02-01T06:24:24;11.00;63.30
51029;DHT22;37054;52.054;8.600;2023-02-01T06:26:50;11.00;63.50
51029;DHT22;37054;52.054;8.600;2023-02-01T06:29:33;11.00;63.50
51029;DHT22;37054;52.054;8.600;2023-02-01T06:31:59;11.00;63.60
51029;DHT22;37054;52.054;8.600;2023-02-01T06:34:27;11.00;63.40
51029;DHT22;37054;52.054;8.600;2023-02-01T06:36:57;11.00;63.60
51029;DHT22;37054;52.054;8.600;2023-02-01T06:39:23;11.00;63.50
51029;DHT22;37054;52.054;8.600;2023-02-01T06:41:53;11.00;63.70
51029;DHT22;37054;52.054;8.600;2023-02-01T06:44:19;11.00;63.50
51029;DHT22;37054;52.054;8.600;2023-02-01T06:46:48;11.00;63.60
51029;DHT22;37054;52.054;8.600;2023-02-01T06:49:14;11.00;63.60
51029;DHT22;37054;52.054;8.600;2023-02-01T06:51:39;11.10;63.50
51029;DHT22;37054;52.054;8.600;2023-02-01T06:54:05;11.10;63.50
51029;DHT22;37054;52.054;8.600;2023-02-01T06:56:31;11.10;63.40
51029;DHT22;37054;52.054;8.600;2023-02-01T06:59:04;11.10;63.50
51029;DHT22;37054;52.054;8.600;2023-02-01T07:01:30;11.00;63.50
51029;DHT22;37054;52.054;8.600;2023-02-01T07:03:56;11.10;63.50
51029;DHT22;37054;52.054;8.600;2023-02-01T07:06:24;11.10;63.50
51029;DHT22;37054;52.054;8.600;2023-02-01T07:08:49;11.10;63.30
51029;DHT22;37054;52.054;8.600;2023-02-01T07:11:36;11.10;63.20
51029;DHT22;37054;52.054;8.600;2023-02-01T07:14:04;11.10;63.40
51029;DHT22;37054;52.054;8.600;2023-02-01T07:16:58;11.10;63.30
51029;DHT22;37054;52.054;8.600;2023-02-01T07:23:00;11.10;63.40
51029;DHT22;37054;52.054;8.600;2023-02-01T07:25:37;11.20;63.20
51029;DHT22;37054;52.054;8.600;2023-02-01T07:31:40;11.20;63.40
51029;DHT22;37054;52.054;8.600;2023-02-01T07:44:15;11.40;63.20
51029;DHT22;37054;52.054;8.600;2023-02-01T07:52:36;11.60;63.20
51029;DHT22;37054;52.054;8.600;2023-02-01T07:55:39;11.50;63.30
51029;DHT22;37054;52.054;8.600;2023-02-01T08:04:30;11.70;63.10
51029;DHT22;37054;52.054;8.600;2023-02-01T08:10:02;11.60;63.00
51029;DHT22;37054;52.054;8.600;2023-02-01T08:16:01;11.50;62.70
51029;DHT22;37054;52.054;8.600;2023-02-01T08:22:01;11.40;63.10
51029;DHT22;37054;52.054;8.600;2023-02-01T08:33:51;11.90;63.70
51029;DHT22;37054;52.054;8.600;2023-02-01T12:31:56;12.00;62.90
51029;DHT22;37054;52.054;8.600;2023-02-01T12:42:49;12.20;63.90
51029;DHT22;37054;52.054;8.600;2023-02-01T12:45:21;12.20;63.80
51029;DHT22;37054;52.054;8.600;2023-02-01T12:50:43;12.10;63.20
51029;DHT22;37054;52.054;8.600;2023-02-01T12:53:15;12.00;63.30
51029;DHT22;37054;52.054;8.600;2023-02-01T12:55:47;12.00;63.60
51029;DHT22;37054;52.054;8.600;2023-02-01T12:58:23;11.90;63.40
51029;DHT22;37054;52.054;8.600;2023-02-01T13:00:51;11.90;63.50
51029;DHT22;37054;52.054;8.600;2023-02-01T13:06:15;11.80;63.50
51029;DHT22;37054;52.054;8.600;2023-02-01T13:11:28;11.70;63.90
51029;DHT22;37054;52.054;8.600;2023-02-01T13:32:04;11.90;64.40
51029;DHT22;37054;52.054;8.600;2023-02-01T13:37:31;12.00;64.20
51029;DHT22;37054;52.054;8.600;2023-02-01T13:45:31;11.80;64.30
51029;DHT22;37054;52.054;8.600;2023-02-01T13:48:02;11.80;64.40
51029;DHT22;37054;52.054;8.600;2023-02-01T13:50:40;11.80;64.60
51029;DHT22;37054;52.054;8.600;2023-02-01T13:58:42;12.30;64.80
51029;DHT22;37054;52.054;8.600;2023-02-01T14:18:57;12.30;64.40
51029;DHT22;37054;52.054;8.600;2023-02-01T14:38:52;11.80;63.30
51029;DHT22;37054;52.054;8.600;2023-02-01T17:02:35;11.50;63.70
51029;DHT22;37054;52.054;8.600;2023-02-01T17:15:05;11.00;62.70
51029;DHT22;37054;52.054;8.600;2023-02-01T17:29:18;10.80;62.40
51029;DHT22;37054;52.054;8.600;2023-02-01T18:18:34;10.10;62.60
51029;DHT22;37054;52.054;8.600;2023-02-01T18:28:12;10.10;62.70
51029;DHT22;37054;52.054;8.600;2023-02-01T18:55:38;9.90;62.40
51029;DHT22;37054;52.054;8.600;2023-02-01T18:58:30;9.90;62.60
51029;DHT22;37054;52.054;8.600;2023-02-01T19:01:16;9.90;62.60
51029;DHT22;37054;52.054;8.600;2023-02-01T19:03:48;9.90;62.30
51029;DHT22;37054;52.054;8.600;2023-02-01T19:09:19;9.90;62.00
51029;DHT22;37054;52.054;8.600;2023-02-01T19:11:47;9.90;61.80
51029;DHT22;37054;52.054;8.600;2023-02-01T19:17:38;9.80;61.80
51029;DHT22;37054;52.054;8.600;2023-02-01T19:20:26;9.80;62.10
51029;DHT22;37054;52.054;8.600;2023-02-01T19:22:52;9.90;62.20
51029;DHT22;37054;52.054;8.600;2023-02-01T19:25:24;9.90;62.50
51029;DHT22;37054;52.054;8.600;2023-02-01T19:27:51;10.00;62.80
51029;DHT22;37054;52.054;8.600;2023-02-01T19:30:19;10.10;63.40
51029;DHT22;37054;52.054;8.600;2023-02-01T19:32:46;10.30;63.70
51029;DHT22;37054;52.054;8.600;2023-02-01T19:35:37;10.40;63.90
51029;DHT22;37054;52.054;8.600;2023-02-01T19:38:08;10.60;64.10
51029;DHT22;37054;52.054;8.600;2023-02-01T19:44:07;10.70;64.10
51029;DHT22;37054;52.054;8.600;2023-02-01T19:49:48;10.90;63.80
51029;DHT22;37054;52.054;8.600;2023-02-01T20:08:47;11.00;63.30
51029;DHT22;37054;52.054;8.600;2023-02-01T20:17:36;11.10;63.10
51029;DHT22;37054;52.054;8.600;2023-02-01T20:20:13;11.10;63.00
51029;DHT22;37054;52.054;8.600;2023-02-01T20:25:46;11.10;63.10
51029;DHT22;37054;52.054;8.600;2023-02-01T20:31:50;11.20;63.00
51029;DHT22;37054;52.054;8.600;2023-02-01T20:34:46;11.10;62.50
51029;DHT22;37054;52.054;8.600;2023-02-01T20:37:49;11.10;62.50
51029;DHT22;37054;52.054;8.600;2023-02-01T20:40:46;11.10;62.40
51029;DHT22;37054;52.054;8.600;2023-02-01T20:43:19;11.00;62.40
51029;DHT22;37054;52.054;8.600;2023-02-01T20:48:36;11.00;62.80
51029;DHT22;37054;52.054;8.600;2023-02-01T20:51:09;11.10;62.90
51029;DHT22;37054;52.054;8.600;2023-02-01T20:57:07;11.20;63.30
51029;DHT22;37054;52.054;8.600;2023-02-01T21:08:35;11.40;63.00
51029;DHT22;37054;52.054;8.600;2023-02-01T21:11:31;11.30;62.70
51029;DHT22;37054;52.054;8.600;2023-02-01T21:17:17;11.20;62.00
51029;DHT22;37054;52.054;8.600;2023-02-01T21:28:30;10.80;61.90
51029;DHT22;37054;52.054;8.600;2023-02-01T21:31:56;10.80;62.30
51029;DHT22;37054;52.054;8.600;2023-02-01T21:37:11;10.90;62.80
51029;DHT22;37054;52.054;8.600;2023-02-01T21:39:45;11.00;62.90
51029;DHT22;37054;52.054;8.600;2023-02-01T21:42:42;11.10;63.00
51029;DHT22;37054;52.054;8.600;2023-02-01T22:01:10;11.00;62.50
51029;DHT22;37054;52.054;8.600;2023-02-01T22:25:31;11.10;62.70
51029;DHT22;37054;52.054;8.600;2023-02-01T22:28:19;11.10;62.50
51029;DHT22;37054;52.054;8.600;2023-02-01T22:31:18;11.10;62.60
51029;DHT22;37054;52.054;8.600;2023-02-01T22:53:16;10.90;62.10
51029;DHT22;37054;52.054;8.600;2023-02-01T23:13:20;10.90;62.50
51029;DHT22;37054;52.054;8.600;2023-02-01T23:25:25;10.80;61.80
51029;DHT22;37054;52.054;8.600;2023-02-01T23:31:32;10.60;61.20
51029;DHT22;37054;52.054;8.600;2023-02-01T23:40:22;10.30;61.40
51029;DHT22;37054;52.054;8.600;2023-02-01T23:57:38;9.70;60.70
